sensor_id;sensor_type;location;lat;lon;timestamp;pressure;altitude;pressure_sealevel;temperature;humidity
35892;BME280;21993;42.672;23.296;2023-04-29T00:00:18;94774.47;;;10.50;54.92
35892;BME280;21993;42.672;23.296;2023-04-29T00:02:44;94770.75;;;10.52;54.72
35892;BME280;21993;42.672;23.296;2023-04-29T00:05:09;94764.69;;;10.52;54.69
35892;BME280;21993;42.672;23.296;2023-04-29T00:07:34;94760.44;;;10.60;54.83
35892;BME280;21993;42.672;23.296;2023-04-29T00:10:00;94774.06;;;10.54;54.64
35892;BME280;21993;42.672;23.296;2023-04-29T00:12:26;94775.34;;;10.60;54.37
35892;BME280;21993;42.672;23.296;2023-04-29T00:14:52;94778.34;;;10.55;54.60
35892;BME280;21993;42.672;23.296;2023-04-29T00:17:18;94780.13;;;10.45;55.28
35892;BME280;21993;42.672;23.296;2023-04-29T00:19:43;94784.13;;;10.49;55.05
35892;BME280;21993;42.672;23.296;2023-04-29T00:22:09;94781.09;;;10.44;55.40
35892;BME280;21993;42.672;23.296;2023-04-29T00:24:35;94780.22;;;10.34;55.55
35892;BME280;21993;42.672;23.296;2023-04-29T00:27:00;94781.75;;;10.36;55.18
35892;BME280;21993;42.672;23.296;2023-04-29T00:29:29;94788.94;;;10.34;55.30
35892;BME280;21993;42.672;23.296;2023-04-29T00:31:55;94789.13;;;10.22;55.71
35892;BME280;21993;42.672;23.296;2023-04-29T00:34:20;94786.38;;;10.23;55.88
35892;BME280;21993;42.672;23.296;2023-04-29T00:36:45;94782.78;;;10.24;55.80
35892;BME280;21993;42.672;23.296;2023-04-29T00:39:11;94786.03;;;10.16;55.39
35892;BME280;21993;42.672;23.296;2023-04-29T00:41:38;94787.59;;;10.19;55.48
35892;BME280;21993;42.672;23.296;2023-04-29T00:44:03;94778.63;;;10.22;56.07
35892;BME280;21993;42.672;23.296;2023-04-29T00:46:29;94779.41;;;10.12;55.99
35892;BME280;21993;42.672;23.296;2023-04-29T00:48:54;94776.97;;;10.21;55.38
35892;BME280;21993;42.672;23.296;2023-04-29T00:51:20;94779.47;;;10.22;55.31
35892;BME280;21993;42.672;23.296;2023-04-29T00:53:46;94769.00;;;10.22;55.31
35892;BME280;21993;42.672;23.296;2023-04-29T00:56:11;94767.97;;;10.13;55.20
35892;BME280;21993;42.672;23.296;2023-04-29T00:58:39;94759.13;;;10.14;55.47
35892;BME280;21993;42.672;23.296;2023-04-29T01:01:04;94765.34;;;10.13;55.40
35892;BME280;21993;42.672;23.296;2023-04-29T01:03:30;94759.47;;;10.00;55.98
35892;BME280;21993;42.672;23.296;2023-04-29T01:11:54;94748.25;;;9.88;56.59
35892;BME280;21993;42.672;23.296;2023-04-29T01:14:23;94739.81;;;9.85;56.59
35892;BME280;21993;42.672;23.296;2023-04-29T01:16:58;94744.34;;;9.83;56.22
35892;BME280;21993;42.672;23.296;2023-04-29T01:19:47;94734.69;;;9.83;56.89
35892;BME280;21993;42.672;23.296;2023-04-29T01:22:12;94742.25;;;9.77;56.32
35892;BME280;21993;42.672;23.296;2023-04-29T01:24:46;94735.41;;;9.85;55.83
35892;BME280;21993;42.672;23.296;2023-04-29T01:32:34;94737.97;;;9.76;56.52
35892;BME280;21993;42.672;23.296;2023-04-29T01:35:03;94740.47;;;9.77;56.82
35892;BME280;21993;42.672;23.296;2023-04-29T01:37:53;94741.63;;;9.84;56.60
35892;BME280;21993;42.672;23.296;2023-04-29T01:40:25;94741.25;;;9.68;56.64
35892;BME280;21993;42.672;23.296;2023-04-29T01:43:00;94747.81;;;9.63;56.57
35892;BME280;21993;42.672;23.296;2023-04-29T01:45:26;94735.31;;;9.45;57.78
35892;BME280;21993;42.672;23.296;2023-04-29T01:47:53;94742.06;;;9.48;57.72
35892;BME280;21993;42.672;23.296;2023-04-29T01:50:22;94741.03;;;9.39;58.19
35892;BME280;21993;42.672;23.296;2023-04-29T01:52:48;94733.97;;;9.30;57.33
35892;BME280;21993;42.672;23.296;2023-04-29T01:55:13;94733.63;;;9.23;58.17
35892;BME280;21993;42.672;23.296;2023-04-29T01:57:39;94739.97;;;9.21;58.20
35892;BME280;21993;42.672;23.296;2023-04-29T02:00:05;94735.28;;;9.24;58.20
35892;BME280;21993;42.672;23.296;2023-04-29T02:02:31;94731.78;;;9.35;58.22
35892;BME280;21993;42.672;23.296;2023-04-29T02:04:57;94737.38;;;9.42;57.80
35892;BME280;21993;42.672;23.296;2023-04-29T02:07:22;94731.41;;;9.40;57.48
35892;BME280;21993;42.672;23.296;2023-04-29T02:09:47;94732.94;;;9.42;57.64
35892;BME280;21993;42.672;23.296;2023-04-29T02:12:13;94743.25;;;9.34;57.68
35892;BME280;21993;42.672;23.296;2023-04-29T02:14:38;94742.84;;;9.39;57.46
35892;BME280;21993;42.672;23.296;2023-04-29T02:17:04;94744.06;;;9.35;57.99
35892;BME280;21993;42.672;23.296;2023-04-29T02:19:29;94742.28;;;9.35;57.68
35892;BME280;21993;42.672;23.296;2023-04-29T02:21:55;94736.00;;;9.26;57.43
35892;BME280;21993;42.672;23.296;2023-04-29T02:24:20;94738.94;;;9.33;56.53
35892;BME280;21993;42.672;23.296;2023-04-29T02:26:46;94739.78;;;9.34;57.12
35892;BME280;21993;42.672;23.296;2023-04-29T02:29:11;94733.41;;;9.26;57.11
35892;BME280;21993;42.672;23.296;2023-04-29T02:31:37;94731.63;;;9.16;56.83
35892;BME280;21993;42.672;23.296;2023-04-29T02:34:02;94738.72;;;9.04;57.50
35892;BME280;21993;42.672;23.296;2023-04-29T02:36:28;94735.16;;;9.05;58.51
35892;BME280;21993;42.672;23.296;2023-04-29T02:38:53;94743.47;;;9.10;58.12
35892;BME280;21993;42.672;23.296;2023-04-29T02:41:20;94732.53;;;9.05;57.88
35892;BME280;21993;42.672;23.296;2023-04-29T02:43:46;94738.59;;;9.06;58.05
35892;BME280;21993;42.672;23.296;2023-04-29T02:46:13;94734.25;;;8.95;58.77
35892;BME280;21993;42.672;23.296;2023-04-29T02:48:39;94743.69;;;8.86;58.42
35892;BME280;21993;42.672;23.296;2023-04-29T02:51:04;94741.88;;;8.87;58.71
35892;BME280;21993;42.672;23.296;2023-04-29T02:53:30;94745.47;;;8.86;58.88
35892;BME280;21993;42.672;23.296;2023-04-29T02:55:56;94745.94;;;8.80;58.92
35892;BME280;21993;42.672;23.296;2023-04-29T02:58:22;94756.25;;;8.60;60.38
35892;BME280;21993;42.672;23.296;2023-04-29T03:00:47;94766.66;;;8.71;59.35
35892;BME280;21993;42.672;23.296;2023-04-29T03:03:13;94760.25;;;8.76;59.38
35892;BME280;21993;42.672;23.296;2023-04-29T03:05:38;94751.66;;;8.73;59.42
35892;BME280;21993;42.672;23.296;2023-04-29T03:08:04;94754.06;;;8.77;59.85
35892;BME280;21993;42.672;23.296;2023-04-29T03:10:29;94759.22;;;8.67;60.12
35892;BME280;21993;42.672;23.296;2023-04-29T03:12:55;94756.47;;;8.68;59.78
35892;BME280;21993;42.672;23.296;2023-04-29T03:15:20;94764.19;;;8.70;60.31
35892;BME280;21993;42.672;23.296;2023-04-29T03:17:46;94761.44;;;8.71;59.50
35892;BME280;21993;42.672;23.296;2023-04-29T03:20:12;94751.09;;;8.70;59.36
35892;BME280;21993;42.672;23.296;2023-04-29T03:22:38;94756.06;;;8.73;60.60
35892;BME280;21993;42.672;23.296;2023-04-29T03:25:04;94772.28;;;8.67;59.35
35892;BME280;21993;42.672;23.296;2023-04-29T03:27:30;94774.03;;;8.78;59.26
35892;BME280;21993;42.672;23.296;2023-04-29T03:29:55;94783.81;;;8.76;59.18
35892;BME280;21993;42.672;23.296;2023-04-29T03:32:21;94790.34;;;8.70;60.19
35892;BME280;21993;42.672;23.296;2023-04-29T03:34:48;94793.56;;;8.62;60.56
35892;BME280;21993;42.672;23.296;2023-04-29T03:37:14;94787.38;;;8.63;60.08
35892;BME280;21993;42.672;23.296;2023-04-29T03:39:40;94791.78;;;8.63;59.49
35892;BME280;21993;42.672;23.296;2023-04-29T03:42:06;94801.31;;;8.64;59.98
35892;BME280;21993;42.672;23.296;2023-04-29T03:44:32;94797.84;;;8.63;59.84
35892;BME280;21993;42.672;23.296;2023-04-29T03:46:57;94785.25;;;8.68;60.05
35892;BME280;21993;42.672;23.296;2023-04-29T03:49:23;94782.38;;;8.71;59.74
35892;BME280;21993;42.672;23.296;2023-04-29T03:51:48;94787.47;;;8.73;59.77
35892;BME280;21993;42.672;23.296;2023-04-29T03:54:13;94774.91;;;8.67;60.10
35892;BME280;21993;42.672;23.296;2023-04-29T03:56:39;94769.78;;;8.65;59.93
35892;BME280;21993;42.672;23.296;2023-04-29T03:59:05;94779.63;;;8.73;59.71
35892;BME280;21993;42.672;23.296;2023-04-29T04:01:31;94791.06;;;8.72;60.18
35892;BME280;21993;42.672;23.296;2023-04-29T04:03:57;94788.56;;;8.70;59.99
35892;BME280;21993;42.672;23.296;2023-04-29T04:06:22;94788.56;;;8.70;58.87
35892;BME280;21993;42.672;23.296;2023-04-29T04:08:48;94784.03;;;8.84;59.34
35892;BME280;21993;42.672;23.296;2023-04-29T04:11:13;94793.09;;;8.68;59.39
35892;BME280;21993;42.672;23.296;2023-04-29T04:13:42;94802.13;;;8.64;59.91
35892;BME280;21993;42.672;23.296;2023-04-29T04:16:08;94792.63;;;8.63;59.44
35892;BME280;21993;42.672;23.296;2023-04-29T04:18:35;94790.88;;;8.53;59.56
35892;BME280;21993;42.672;23.296;2023-04-29T04:21:10;94792.78;;;8.51;58.89
35892;BME280;21993;42.672;23.296;2023-04-29T04:23:36;94789.56;;;8.58;58.99
35892;BME280;21993;42.672;23.296;2023-04-29T04:26:04;94793.94;;;8.69;58.99
35892;BME280;21993;42.672;23.296;2023-04-29T04:28:30;94782.59;;;8.80;59.09
35892;BME280;21993;42.672;23.296;2023-04-29T04:30:56;94781.41;;;8.84;59.25
35892;BME280;21993;42.672;23.296;2023-04-29T04:33:21;94783.06;;;8.85;59.14
35892;BME280;21993;42.672;23.296;2023-04-29T04:35:47;94780.28;;;8.97;59.22
35892;BME280;21993;42.672;23.296;2023-04-29T04:38:12;94784.31;;;9.01;58.13
35892;BME280;21993;42.672;23.296;2023-04-29T04:40:43;94792.53;;;9.08;58.91
35892;BME280;21993;42.672;23.296;2023-04-29T04:43:09;94792.53;;;9.08;59.44
35892;BME280;21993;42.672;23.296;2023-04-29T04:45:34;94781.50;;;9.25;57.89
35892;BME280;21993;42.672;23.296;2023-04-29T04:48:01;94795.44;;;9.26;57.41
35892;BME280;21993;42.672;23.296;2023-04-29T04:50:27;94798.53;;;9.20;58.10
35892;BME280;21993;42.672;23.296;2023-04-29T04:52:54;94803.97;;;9.28;58.16
35892;BME280;21993;42.672;23.296;2023-04-29T04:55:20;94793.25;;;9.31;58.29
35892;BME280;21993;42.672;23.296;2023-04-29T04:57:45;94785.84;;;9.36;57.70
35892;BME280;21993;42.672;23.296;2023-04-29T05:00:11;94788.19;;;9.39;57.48
35892;BME280;21993;42.672;23.296;2023-04-29T05:02:37;94782.75;;;9.31;58.02
35892;BME280;21993;42.672;23.296;2023-04-29T05:05:02;94772.97;;;9.33;57.91
35892;BME280;21993;42.672;23.296;2023-04-29T05:07:27;94772.47;;;9.18;57.93
35892;BME280;21993;42.672;23.296;2023-04-29T05:09:53;94771.22;;;9.34;57.47
35892;BME280;21993;42.672;23.296;2023-04-29T05:12:18;94768.22;;;9.38;57.98
35892;BME280;21993;42.672;23.296;2023-04-29T05:14:44;94771.78;;;9.37;57.42
35892;BME280;21993;42.672;23.296;2023-04-29T05:17:09;94761.78;;;9.42;58.07
35892;BME280;21993;42.672;23.296;2023-04-29T05:19:35;94761.19;;;9.39;57.75
35892;BME280;21993;42.672;23.296;2023-04-29T05:22:00;94749.72;;;9.40;57.58
35892;BME280;21993;42.672;23.296;2023-04-29T05:24:26;94763.44;;;9.43;56.82
35892;BME280;21993;42.672;23.296;2023-04-29T05:26:51;94761.09;;;9.50;57.24
35892;BME280;21993;42.672;23.296;2023-04-29T05:29:18;94754.84;;;9.62;56.88
35892;BME280;21993;42.672;23.296;2023-04-29T05:31:43;94757.06;;;9.67;56.19
35892;BME280;21993;42.672;23.296;2023-04-29T05:34:09;94759.81;;;9.65;56.12
35892;BME280;21993;42.672;23.296;2023-04-29T05:36:34;94760.97;;;9.72;57.10
35892;BME280;21993;42.672;23.296;2023-04-29T05:39:00;94752.16;;;9.73;56.75
35892;BME280;21993;42.672;23.296;2023-04-29T05:41:25;94746.41;;;9.79;56.70
35892;BME280;21993;42.672;23.296;2023-04-29T05:43:51;94736.66;;;9.91;55.80
35892;BME280;21993;42.672;23.296;2023-04-29T05:46:16;94746.25;;;10.02;55.28
35892;BME280;21993;42.672;23.296;2023-04-29T05:48:42;94755.91;;;10.01;56.27
35892;BME280;21993;42.672;23.296;2023-04-29T05:51:07;94748.59;;;10.05;56.45
35892;BME280;21993;42.672;23.296;2023-04-29T05:53:33;94760.63;;;10.17;56.13
35892;BME280;21993;42.672;23.296;2023-04-29T05:55:59;94761.44;;;10.08;56.50
35892;BME280;21993;42.672;23.296;2023-04-29T05:58:29;94764.81;;;10.20;55.77
35892;BME280;21993;42.672;23.296;2023-04-29T06:00:54;94753.09;;;10.24;55.67
35892;BME280;21993;42.672;23.296;2023-04-29T06:03:19;94757.84;;;10.30;56.32
35892;BME280;21993;42.672;23.296;2023-04-29T06:05:45;94762.56;;;10.36;55.60
35892;BME280;21993;42.672;23.296;2023-04-29T06:08:10;94761.19;;;10.41;55.41
35892;BME280;21993;42.672;23.296;2023-04-29T06:10:36;94757.63;;;10.52;55.24
35892;BME280;21993;42.672;23.296;2023-04-29T06:13:02;94749.78;;;10.62;54.35
35892;BME280;21993;42.672;23.296;2023-04-29T06:15:27;94757.53;;;10.73;53.97
35892;BME280;21993;42.672;23.296;2023-04-29T06:17:53;94750.25;;;11.06;52.33
35892;BME280;21993;42.672;23.296;2023-04-29T06:20:18;94757.97;;;10.88;53.37
35892;BME280;21993;42.672;23.296;2023-04-29T06:22:44;94754.53;;;11.07;52.38
35892;BME280;21993;42.672;23.296;2023-04-29T06:25:09;94755.66;;;11.04;53.59
35892;BME280;21993;42.672;23.296;2023-04-29T06:27:35;94748.47;;;11.16;53.25
35892;BME280;21993;42.672;23.296;2023-04-29T06:30:00;94757.59;;;11.21;53.82
35892;BME280;21993;42.672;23.296;2023-04-29T06:32:25;94749.56;;;11.33;54.21
35892;BME280;21993;42.672;23.296;2023-04-29T06:34:51;94756.88;;;11.48;53.82
35892;BME280;21993;42.672;23.296;2023-04-29T06:37:16;94755.03;;;11.68;53.00
35892;BME280;21993;42.672;23.296;2023-04-29T06:39:42;94749.81;;;11.88;53.35
35892;BME280;21993;42.672;23.296;2023-04-29T06:42:07;94748.75;;;12.08;51.20
35892;BME280;21993;42.672;23.296;2023-04-29T06:44:32;94744.88;;;12.12;51.28
35892;BME280;21993;42.672;23.296;2023-04-29T06:46:58;94745.22;;;12.27;50.25
35892;BME280;21993;42.672;23.296;2023-04-29T06:49:23;94743.81;;;12.32;51.02
35892;BME280;21993;42.672;23.296;2023-04-29T06:51:49;94747.31;;;12.51;50.29
35892;BME280;21993;42.672;23.296;2023-04-29T06:54:14;94746.94;;;12.46;50.83
35892;BME280;21993;42.672;23.296;2023-04-29T06:56:40;94742.44;;;12.83;49.29
35892;BME280;21993;42.672;23.296;2023-04-29T06:59:06;94737.50;;;12.98;49.14
35892;BME280;21993;42.672;23.296;2023-04-29T07:01:31;94737.56;;;13.06;47.87
35892;BME280;21993;42.672;23.296;2023-04-29T07:03:57;94742.75;;;12.98;48.81
35892;BME280;21993;42.672;23.296;2023-04-29T07:06:22;94734.25;;;13.04;49.33
35892;BME280;21993;42.672;23.296;2023-04-29T07:08:48;94721.09;;;13.04;49.36
35892;BME280;21993;42.672;23.296;2023-04-29T07:11:13;94728.88;;;13.23;49.02
35892;BME280;21993;42.672;23.296;2023-04-29T07:13:38;94724.94;;;13.28;47.82
35892;BME280;21993;42.672;23.296;2023-04-29T07:16:04;94725.69;;;13.38;48.04
35892;BME280;21993;42.672;23.296;2023-04-29T07:18:30;94729.44;;;13.53;47.89
35892;BME280;21993;42.672;23.296;2023-04-29T07:21:00;94727.59;;;13.71;47.08
35892;BME280;21993;42.672;23.296;2023-04-29T07:23:25;94723.94;;;13.90;46.35
35892;BME280;21993;42.672;23.296;2023-04-29T07:25:51;94727.34;;;13.83;47.15
35892;BME280;21993;42.672;23.296;2023-04-29T07:28:16;94723.09;;;13.90;46.26
35892;BME280;21993;42.672;23.296;2023-04-29T07:30:41;94723.31;;;13.96;46.48
35892;BME280;21993;42.672;23.296;2023-04-29T07:33:07;94720.19;;;14.01;46.21
35892;BME280;21993;42.672;23.296;2023-04-29T07:35:32;94723.78;;;14.26;45.44
35892;BME280;21993;42.672;23.296;2023-04-29T07:37:58;94725.09;;;14.22;45.03
35892;BME280;21993;42.672;23.296;2023-04-29T07:40:23;94717.31;;;14.20;45.43
35892;BME280;21993;42.672;23.296;2023-04-29T07:42:49;94718.34;;;14.27;45.10
35892;BME280;21993;42.672;23.296;2023-04-29T07:45:14;94713.53;;;14.49;43.85
35892;BME280;21993;42.672;23.296;2023-04-29T07:47:39;94717.09;;;14.40;45.25
35892;BME280;21993;42.672;23.296;2023-04-29T07:50:05;94715.13;;;14.42;45.79
35892;BME280;21993;42.672;23.296;2023-04-29T07:52:31;94704.81;;;14.56;45.46
35892;BME280;21993;42.672;23.296;2023-04-29T07:54:56;94711.31;;;14.86;44.14
35892;BME280;21993;42.672;23.296;2023-04-29T07:57:22;94702.94;;;14.99;42.62
35892;BME280;21993;42.672;23.296;2023-04-29T07:59:53;94706.72;;;14.88;43.95
35892;BME280;21993;42.672;23.296;2023-04-29T08:02:20;94703.09;;;14.89;44.65
35892;BME280;21993;42.672;23.296;2023-04-29T08:04:45;94692.38;;;15.07;43.69
35892;BME280;21993;42.672;23.296;2023-04-29T08:07:11;94691.41;;;15.16;42.73
35892;BME280;21993;42.672;23.296;2023-04-29T08:09:37;94698.34;;;15.17;43.68
35892;BME280;21993;42.672;23.296;2023-04-29T08:12:02;94699.53;;;15.47;42.14
35892;BME280;21993;42.672;23.296;2023-04-29T08:14:28;94694.88;;;15.49;42.37
35892;BME280;21993;42.672;23.296;2023-04-29T08:16:54;94688.25;;;15.54;43.12
35892;BME280;21993;42.672;23.296;2023-04-29T08:19:19;94691.25;;;15.59;42.52
35892;BME280;21993;42.672;23.296;2023-04-29T08:21:46;94684.59;;;15.95;41.50
35892;BME280;21993;42.672;23.296;2023-04-29T08:24:11;94691.22;;;15.99;41.37
35892;BME280;21993;42.672;23.296;2023-04-29T08:26:39;94676.31;;;15.98;40.97
35892;BME280;21993;42.672;23.296;2023-04-29T08:29:04;94678.81;;;16.00;41.37
35892;BME280;21993;42.672;23.296;2023-04-29T08:31:29;94679.78;;;16.07;41.44
35892;BME280;21993;42.672;23.296;2023-04-29T08:33:55;94682.44;;;16.07;41.78
35892;BME280;21993;42.672;23.296;2023-04-29T08:36:22;94681.06;;;16.19;41.51
35892;BME280;21993;42.672;23.296;2023-04-29T08:38:48;94679.53;;;16.33;40.81
35892;BME280;21993;42.672;23.296;2023-04-29T08:41:16;94669.47;;;16.59;39.92
35892;BME280;21993;42.672;23.296;2023-04-29T08:43:42;94677.56;;;16.74;39.17
35892;BME280;21993;42.672;23.296;2023-04-29T08:46:08;94671.19;;;16.83;38.97
35892;BME280;21993;42.672;23.296;2023-04-29T08:48:36;94664.97;;;16.99;38.78
35892;BME280;21993;42.672;23.296;2023-04-29T08:51:03;94662.47;;;16.98;39.44
35892;BME280;21993;42.672;23.296;2023-04-29T08:53:28;94661.44;;;17.07;38.27
35892;BME280;21993;42.672;23.296;2023-04-29T08:55:54;94656.53;;;16.96;39.71
35892;BME280;21993;42.672;23.296;2023-04-29T08:58:23;94651.75;;;17.14;37.97
35892;BME280;21993;42.672;23.296;2023-04-29T09:00:49;94657.03;;;16.99;38.94
35892;BME280;21993;42.672;23.296;2023-04-29T09:03:24;94651.59;;;17.15;37.94
35892;BME280;21993;42.672;23.296;2023-04-29T09:05:54;94649.22;;;17.21;38.49
35892;BME280;21993;42.672;23.296;2023-04-29T09:08:22;94648.56;;;17.41;38.12
35892;BME280;21993;42.672;23.296;2023-04-29T09:10:49;94655.72;;;17.41;38.10
35892;BME280;21993;42.672;23.296;2023-04-29T09:13:23;94650.50;;;17.48;38.13
35892;BME280;21993;42.672;23.296;2023-04-29T09:19:10;94652.06;;;17.57;37.91
35892;BME280;21993;42.672;23.296;2023-04-29T09:21:36;94650.91;;;17.59;38.18
35892;BME280;21993;42.672;23.296;2023-04-29T09:24:02;94635.94;;;17.81;36.26
35892;BME280;21993;42.672;23.296;2023-04-29T09:26:42;94637.88;;;17.87;35.99
35892;BME280;21993;42.672;23.296;2023-04-29T09:29:12;94627.56;;;17.69;37.01
35892;BME280;21993;42.672;23.296;2023-04-29T09:31:38;94637.25;;;17.85;36.19
35892;BME280;21993;42.672;23.296;2023-04-29T09:34:04;94635.13;;;17.95;36.47
35892;BME280;21993;42.672;23.296;2023-04-29T09:36:49;94626.25;;;17.88;37.56
35892;BME280;21993;42.672;23.296;2023-04-29T09:39:17;94625.78;;;17.85;38.04
35892;BME280;21993;42.672;23.296;2023-04-29T09:44:15;94620.47;;;18.14;36.99
35892;BME280;21993;42.672;23.296;2023-04-29T09:46:40;94618.25;;;18.33;36.60
35892;BME280;21993;42.672;23.296;2023-04-29T09:49:59;94616.25;;;18.35;36.25
35892;BME280;21993;42.672;23.296;2023-04-29T09:52:20;94605.22;;;18.52;35.55
35892;BME280;21993;42.672;23.296;2023-04-29T09:54:46;94606.88;;;18.53;36.13
35892;BME280;21993;42.672;23.296;2023-04-29T09:57:12;94610.16;;;18.55;35.80
35892;BME280;21993;42.672;23.296;2023-04-29T09:59:40;94603.91;;;18.63;36.22
35892;BME280;21993;42.672;23.296;2023-04-29T10:04:38;94589.91;;;18.54;35.09
35892;BME280;21993;42.672;23.296;2023-04-29T10:07:04;94595.31;;;18.46;35.40
35892;BME280;21993;42.672;23.296;2023-04-29T10:09:30;94588.16;;;18.47;36.18
35892;BME280;21993;42.672;23.296;2023-04-29T10:11:56;94582.50;;;18.50;36.16
35892;BME280;21993;42.672;23.296;2023-04-29T10:14:23;94583.19;;;18.73;35.80
35892;BME280;21993;42.672;23.296;2023-04-29T10:17:10;94569.56;;;19.04;33.63
35892;BME280;21993;42.672;23.296;2023-04-29T10:19:41;94577.13;;;19.01;34.81
35892;BME280;21993;42.672;23.296;2023-04-29T10:22:18;94568.56;;;19.05;34.08
35892;BME280;21993;42.672;23.296;2023-04-29T10:24:47;94565.19;;;19.18;34.61
35892;BME280;21993;42.672;23.296;2023-04-29T10:27:14;94556.94;;;19.34;34.20
35892;BME280;21993;42.672;23.296;2023-04-29T10:29:42;94567.75;;;19.33;34.38
35892;BME280;21993;42.672;23.296;2023-04-29T10:32:08;94564.09;;;19.34;34.02
35892;BME280;21993;42.672;23.296;2023-04-29T10:34:37;94562.63;;;19.31;33.72
35892;BME280;21993;42.672;23.296;2023-04-29T10:37:08;94564.13;;;19.40;33.65
35892;BME280;21993;42.672;23.296;2023-04-29T10:39:43;94563.25;;;19.33;33.35
35892;BME280;21993;42.672;23.296;2023-04-29T10:42:33;94570.41;;;19.33;33.46
35892;BME280;21993;42.672;23.296;2023-04-29T10:45:26;94564.59;;;19.44;33.72
35892;BME280;21993;42.672;23.296;2023-04-29T10:50:40;94563.38;;;19.19;33.56
35892;BME280;21993;42.672;23.296;2023-04-29T10:53:23;94561.25;;;19.14;33.98
35892;BME280;21993;42.672;23.296;2023-04-29T10:56:03;94560.50;;;19.20;33.60
35892;BME280;21993;42.672;23.296;2023-04-29T11:01:01;94554.78;;;19.23;34.73
35892;BME280;21993;42.672;23.296;2023-04-29T11:06:15;94559.09;;;19.24;33.32
35892;BME280;21993;42.672;23.296;2023-04-29T11:08:40;94557.72;;;19.28;31.88
35892;BME280;21993;42.672;23.296;2023-04-29T11:11:07;94553.78;;;19.24;32.01
35892;BME280;21993;42.672;23.296;2023-04-29T11:13:39;94552.19;;;19.30;31.80
35892;BME280;21993;42.672;23.296;2023-04-29T11:16:05;94552.59;;;19.33;32.15
35892;BME280;21993;42.672;23.296;2023-04-29T11:18:31;94546.38;;;19.48;31.36
35892;BME280;21993;42.672;23.296;2023-04-29T11:23:28;94539.84;;;19.22;30.98
35892;BME280;21993;42.672;23.296;2023-04-29T11:25:54;94544.63;;;19.33;30.72
35892;BME280;21993;42.672;23.296;2023-04-29T11:28:21;94555.94;;;19.35;30.88
35892;BME280;21993;42.672;23.296;2023-04-29T11:30:47;94553.06;;;19.37;30.53
35892;BME280;21993;42.672;23.296;2023-04-29T11:33:14;94546.81;;;19.23;29.01
35892;BME280;21993;42.672;23.296;2023-04-29T11:35:40;94543.31;;;19.23;29.35
35892;BME280;21993;42.672;23.296;2023-04-29T11:38:06;94539.44;;;19.25;29.47
35892;BME280;21993;42.672;23.296;2023-04-29T11:40:31;94540.84;;;19.21;29.58
35892;BME280;21993;42.672;23.296;2023-04-29T11:42:57;94542.69;;;19.21;30.24
35892;BME280;21993;42.672;23.296;2023-04-29T11:45:22;94550.06;;;19.19;30.86
35892;BME280;21993;42.672;23.296;2023-04-29T11:47:48;94542.41;;;19.09;30.67
35892;BME280;21993;42.672;23.296;2023-04-29T11:50:15;94536.88;;;19.10;29.65
35892;BME280;21993;42.672;23.296;2023-04-29T11:52:42;94541.63;;;19.15;30.17
35892;BME280;21993;42.672;23.296;2023-04-29T11:55:09;94533.00;;;19.13;30.13
35892;BME280;21993;42.672;23.296;2023-04-29T11:57:36;94533.84;;;19.13;30.30
35892;BME280;21993;42.672;23.296;2023-04-29T12:00:02;94534.78;;;19.06;30.59
35892;BME280;21993;42.672;23.296;2023-04-29T12:02:32;94531.78;;;18.88;30.79
35892;BME280;21993;42.672;23.296;2023-04-29T12:04:58;94530.31;;;18.85;31.95
35892;BME280;21993;42.672;23.296;2023-04-29T12:07:29;94531.91;;;18.79;31.70
35892;BME280;21993;42.672;23.296;2023-04-29T12:09:55;94534.28;;;18.74;32.51
35892;BME280;21993;42.672;23.296;2023-04-29T12:12:22;94528.00;;;18.75;32.95
35892;BME280;21993;42.672;23.296;2023-04-29T12:14:48;94539.47;;;18.61;33.00
35892;BME280;21993;42.672;23.296;2023-04-29T12:17:14;94538.56;;;18.54;33.39
35892;BME280;21993;42.672;23.296;2023-04-29T12:19:41;94526.78;;;18.63;33.73
35892;BME280;21993;42.672;23.296;2023-04-29T12:22:08;94520.03;;;18.61;34.04
35892;BME280;21993;42.672;23.296;2023-04-29T12:24:38;94517.09;;;18.70;34.37
35892;BME280;21993;42.672;23.296;2023-04-29T12:27:07;94516.47;;;18.68;34.63
35892;BME280;21993;42.672;23.296;2023-04-29T12:29:34;94522.50;;;18.62;34.46
35892;BME280;21993;42.672;23.296;2023-04-29T12:32:00;94524.44;;;18.68;34.34
35892;BME280;21993;42.672;23.296;2023-04-29T12:34:30;94515.44;;;18.69;34.92
35892;BME280;21993;42.672;23.296;2023-04-29T12:36:57;94520.84;;;18.61;35.07
35892;BME280;21993;42.672;23.296;2023-04-29T12:39:25;94519.00;;;18.62;35.25
35892;BME280;21993;42.672;23.296;2023-04-29T12:41:56;94515.19;;;18.49;35.54
35892;BME280;21993;42.672;23.296;2023-04-29T12:44:22;94516.47;;;18.53;35.82
35892;BME280;21993;42.672;23.296;2023-04-29T12:46:47;94510.13;;;18.54;34.73
35892;BME280;21993;42.672;23.296;2023-04-29T12:49:13;94511.78;;;18.55;34.92
35892;BME280;21993;42.672;23.296;2023-04-29T12:51:39;94509.31;;;18.54;34.42
35892;BME280;21993;42.672;23.296;2023-04-29T12:54:04;94506.72;;;18.61;34.71
35892;BME280;21993;42.672;23.296;2023-04-29T12:56:31;94510.56;;;18.58;35.14
35892;BME280;21993;42.672;23.296;2023-04-29T12:59:05;94506.66;;;18.69;34.71
35892;BME280;21993;42.672;23.296;2023-04-29T13:01:31;94505.03;;;18.74;34.64
35892;BME280;21993;42.672;23.296;2023-04-29T13:03:57;94496.53;;;18.64;34.49
35892;BME280;21993;42.672;23.296;2023-04-29T13:06:22;94496.53;;;18.64;35.23
35892;BME280;21993;42.672;23.296;2023-04-29T13:08:48;94502.97;;;18.70;35.90
35892;BME280;21993;42.672;23.296;2023-04-29T13:11:15;94500.88;;;18.65;35.96
35892;BME280;21993;42.672;23.296;2023-04-29T13:13:41;94503.16;;;18.68;36.39
35892;BME280;21993;42.672;23.296;2023-04-29T13:16:06;94505.44;;;18.71;36.54
35892;BME280;21993;42.672;23.296;2023-04-29T13:18:32;94500.13;;;18.71;36.42
35892;BME280;21993;42.672;23.296;2023-04-29T13:20:57;94499.72;;;18.74;37.45